createdAt,value
2023-02-21T00:00:02.754Z,0.00
2023-02-21T00:01:02.753Z,0.00
2023-02-21T00:02:02.752Z,0.00
2023-02-21T00:03:02.719Z,0.00
2023-02-21T00:04:02.715Z,0.00
2023-02-21T00:05:02.766Z,0.00
2023-02-21T00:06:02.733Z,0.00
2023-02-21T00:07:02.685Z,0.00
2023-02-21T00:08:02.653Z,0.00
2023-02-21T00:09:02.702Z,0.00
2023-02-21T00:10:02.884Z,0.00
2023-02-21T00:11:02.694Z,0.00
2023-02-21T00:12:02.610Z,0.00
2023-02-21T00:13:02.627Z,0.00
2023-02-21T00:14:02.597Z,0.00
2023-02-21T00:15:02.608Z,0.00
2023-02-21T00:16:02.869Z,0.00
2023-02-21T00:17:02.579Z,0.00
2023-02-21T00:18:02.542Z,0.00
2023-02-21T00:19:02.580Z,0.00
2023-02-21T00:20:02.534Z,0.00
2023-02-21T00:21:02.526Z,0.00
2023-02-21T00:22:02.557Z,0.00
2023-02-21T00:23:02.479Z,0.00
2023-02-21T00:24:02.506Z,0.00
2023-02-21T00:25:02.507Z,0.00
2023-02-21T00:26:02.467Z,0.00
2023-02-21T00:27:02.465Z,0.00
2023-02-21T00:28:02.452Z,0.00
2023-02-21T00:29:02.428Z,0.00
2023-02-21T00:30:02.432Z,0.00
2023-02-21T00:31:02.481Z,0.00
2023-02-21T00:32:02.439Z,0.00
2023-02-21T00:33:02.441Z,0.00
2023-02-21T00:34:02.398Z,0.00
2023-02-21T00:35:02.347Z,0.00
2023-02-21T00:36:02.358Z,0.00
2023-02-21T00:37:02.355Z,0.00
2023-02-21T00:38:02.345Z,0.00
2023-02-21T00:39:02.305Z,0.00
2023-02-21T00:40:02.455Z,0.00
2023-02-21T00:41:02.291Z,0.00
2023-02-21T00:42:02.325Z,0.00
2023-02-21T00:43:02.265Z,0.00
2023-02-21T00:44:02.271Z,0.00
2023-02-21T00:45:02.271Z,0.00
2023-02-21T00:46:02.501Z,0.00
2023-02-21T00:47:02.232Z,0.00
2023-02-21T00:48:02.220Z,0.00
2023-02-21T00:49:02.187Z,0.00
2023-02-21T00:50:02.211Z,0.00
2023-02-21T00:51:03.075Z,0.00
2023-02-21T00:52:02.181Z,0.00
2023-02-21T00:53:02.182Z,0.00
2023-02-21T00:54:02.160Z,0.00
2023-02-21T00:55:02.144Z,0.00
2023-02-21T00:56:02.149Z,0.00
2023-02-21T00:57:02.101Z,0.00
2023-02-21T00:58:02.125Z,0.00
2023-02-21T00:59:02.095Z,0.00
2023-02-21T01:00:02.102Z,0.00
2023-02-21T01:01:02.140Z,0.00
2023-02-21T01:02:02.072Z,0.00
2023-02-21T01:03:02.065Z,0.00
2023-02-21T01:04:02.140Z,0.00
2023-02-21T01:05:02.034Z,0.00
2023-02-21T01:06:02.035Z,0.00
2023-02-21T01:07:01.988Z,0.00
2023-02-21T01:08:02.044Z,0.00
2023-02-21T01:09:01.979Z,0.00
2023-02-21T01:10:02.011Z,0.00
2023-02-21T01:11:02.391Z,0.00
2023-02-21T01:12:02.505Z,0.00
2023-02-21T01:13:01.928Z,0.00
2023-02-21T01:14:01.955Z,0.00
2023-02-21T01:15:01.917Z,0.00
2023-02-21T01:16:01.938Z,0.00
2023-02-21T01:17:12.351Z,0.00
2023-02-21T01:18:02.916Z,0.00
2023-02-21T01:19:01.879Z,0.00
2023-02-21T01:20:01.871Z,0.00
2023-02-21T01:21:01.825Z,0.00
2023-02-21T01:22:01.872Z,0.00
2023-02-21T01:23:01.816Z,0.00
2023-02-21T01:24:01.830Z,0.00
2023-02-21T01:25:01.787Z,0.00
2023-02-21T01:26:01.814Z,0.00
2023-02-21T01:27:01.809Z,0.00
2023-02-21T01:28:01.793Z,0.00
2023-02-21T01:29:01.755Z,0.00
2023-02-21T01:30:01.775Z,0.00
2023-02-21T01:31:01.816Z,0.00
2023-02-21T01:32:01.764Z,0.00
2023-02-21T01:33:01.728Z,0.00
2023-02-21T01:34:01.724Z,0.00
2023-02-21T01:35:01.697Z,0.00
2023-02-21T01:36:01.729Z,0.00
2023-02-21T01:37:01.665Z,0.00
2023-02-21T01:38:01.693Z,0.00
2023-02-21T01:39:01.649Z,0.00
2023-02-21T01:40:01.645Z,0.00
2023-02-21T01:41:01.625Z,0.00
2023-02-21T01:42:01.624Z,0.00
2023-02-21T01:43:01.630Z,0.00
2023-02-21T01:44:01.606Z,0.00
2023-02-21T01:45:01.621Z,0.00
2023-02-21T01:46:01.658Z,0.00
2023-02-21T01:47:01.554Z,0.00
2023-02-21T01:48:01.560Z,0.00
2023-02-21T01:49:01.516Z,0.00
2023-02-21T01:50:01.545Z,0.00
2023-02-21T01:51:01.491Z,0.00
2023-02-21T01:52:01.532Z,0.00
2023-02-21T01:53:01.486Z,0.00
2023-02-21T01:54:01.504Z,0.00
2023-02-21T01:55:01.468Z,0.00
2023-02-21T01:56:01.480Z,0.00
2023-02-21T01:57:01.457Z,0.00
2023-02-21T01:58:02.679Z,0.00
2023-02-21T01:59:01.414Z,0.00
2023-02-21T02:00:01.422Z,0.00
2023-02-21T02:01:01.392Z,0.00
2023-02-21T02:02:01.407Z,0.00
2023-02-21T02:03:01.375Z,0.00
2023-02-21T02:04:01.401Z,0.00
2023-02-21T02:05:01.344Z,0.00
2023-02-21T02:06:01.400Z,0.00
2023-02-21T02:07:01.312Z,0.00
2023-02-21T02:08:01.366Z,0.00
2023-02-21T02:09:01.303Z,0.00
2023-02-21T02:10:01.325Z,0.00
2023-02-21T02:11:01.284Z,0.00
2023-02-21T02:12:01.298Z,0.00
2023-02-21T02:13:01.294Z,0.00
2023-02-21T02:14:01.547Z,0.00
2023-02-21T02:15:01.237Z,0.00
2023-02-21T02:16:01.283Z,0.00
2023-02-21T02:17:03.405Z,0.00
2023-02-21T02:18:01.225Z,0.00
2023-02-21T02:19:01.194Z,0.00
2023-02-21T02:20:01.233Z,0.00
2023-02-21T02:21:01.180Z,0.00
2023-02-21T02:22:01.172Z,0.00
2023-02-21T02:23:01.157Z,0.00
2023-02-21T02:24:01.152Z,0.00
2023-02-21T02:25:01.113Z,0.00
2023-02-21T02:26:01.133Z,0.00
2023-02-21T02:27:01.115Z,0.00
2023-02-21T02:28:01.111Z,0.00
2023-02-21T02:29:01.086Z,0.00
2023-02-21T02:30:01.084Z,0.00
2023-02-21T02:31:01.158Z,0.00
2023-02-21T02:32:01.172Z,0.00
2023-02-21T02:33:01.134Z,0.00
2023-02-21T02:34:01.332Z,0.00
2023-02-21T02:35:00.993Z,0.00
2023-02-21T02:36:01.041Z,0.00
2023-02-21T02:37:00.984Z,0.00
2023-02-21T02:38:01.014Z,0.00
2023-02-21T02:39:01.461Z,0.00
2023-02-21T02:40:00.978Z,0.00
2023-02-21T02:41:01.315Z,0.00
2023-02-21T02:42:01.609Z,0.00
2023-02-21T02:43:00.940Z,0.00
2023-02-21T02:44:00.943Z,0.00
2023-02-21T02:45:00.914Z,0.00
2023-02-21T02:46:00.955Z,0.00
2023-02-21T02:47:00.889Z,0.00
2023-02-21T02:48:00.896Z,0.00
2023-02-21T02:49:00.853Z,0.00
2023-02-21T02:50:00.860Z,0.00
2023-02-21T02:51:00.865Z,0.00
2023-02-21T02:52:00.856Z,0.00
2023-02-21T02:53:00.797Z,0.00
2023-02-21T02:54:00.860Z,0.00
2023-02-21T02:55:00.861Z,0.00
2023-02-21T02:56:00.804Z,0.00
2023-02-21T02:57:00.758Z,0.00
2023-02-21T02:58:00.790Z,0.00
2023-02-21T02:59:00.749Z,0.00
2023-02-21T03:00:00.759Z,0.00
2023-02-21T03:01:00.705Z,0.00
2023-02-21T03:02:00.714Z,0.00
2023-02-21T03:03:00.726Z,0.00
2023-02-21T03:04:00.695Z,0.00
2023-02-21T03:05:00.716Z,0.00
2023-02-21T03:06:00.679Z,0.00
2023-02-21T03:07:00.625Z,0.00
2023-02-21T03:08:00.661Z,0.00
2023-02-21T03:09:00.636Z,0.00
2023-02-21T03:10:00.635Z,0.00
2023-02-21T03:11:00.643Z,0.00
2023-02-21T03:12:00.597Z,0.00
2023-02-21T03:13:02.431Z,0.00
2023-02-21T03:14:00.627Z,0.00
2023-02-21T03:15:00.577Z,0.00
2023-02-21T03:16:00.623Z,0.00
2023-02-21T03:17:00.522Z,0.00
2023-02-21T03:18:00.565Z,0.00
2023-02-21T03:19:00.504Z,0.00
2023-02-21T03:20:00.532Z,0.00
2023-02-21T03:21:00.473Z,0.00
2023-02-21T03:22:00.504Z,0.00
2023-02-21T03:23:00.453Z,0.00
2023-02-21T03:24:00.500Z,0.00
2023-02-21T03:25:00.457Z,0.00
2023-02-21T03:26:00.466Z,0.00
2023-02-21T03:27:00.411Z,0.00
2023-02-21T03:28:00.427Z,0.00
2023-02-21T03:29:00.467Z,0.00
2023-02-21T03:30:00.393Z,0.00
2023-02-21T03:31:00.410Z,0.00
2023-02-21T03:32:00.438Z,0.00
2023-02-21T03:33:00.356Z,0.00
2023-02-21T03:34:00.405Z,0.00
2023-02-21T03:35:00.524Z,0.00
2023-02-21T03:36:00.358Z,0.00
2023-02-21T03:37:00.322Z,0.00
2023-02-21T03:38:00.332Z,0.00
2023-02-21T03:39:00.305Z,0.00
2023-02-21T03:40:00.283Z,0.00
2023-02-21T03:41:00.400Z,0.00
2023-02-21T03:42:00.271Z,0.00
2023-02-21T03:43:00.228Z,0.00
2023-02-21T03:44:00.250Z,0.00
2023-02-21T03:45:00.258Z,0.00
2023-02-21T03:46:00.225Z,0.00
2023-02-21T03:47:00.202Z,0.00
2023-02-21T03:48:00.232Z,0.00
2023-02-21T03:49:00.161Z,0.00
2023-02-21T03:50:00.188Z,0.00
2023-02-21T03:51:00.522Z,0.00
2023-02-21T03:52:00.205Z,0.00
2023-02-21T03:53:00.138Z,0.00
2023-02-21T03:54:00.140Z,0.00
2023-02-21T03:55:00.577Z,0.00
2023-02-21T03:56:00.128Z,0.00
2023-02-21T03:57:00.121Z,0.00
2023-02-21T03:58:00.119Z,0.00
2023-02-21T03:59:00.090Z,0.00
2023-02-21T04:00:00.092Z,0.00
2023-02-21T04:01:00.066Z,0.00
2023-02-21T04:02:00.179Z,0.00
2023-02-21T04:03:00.005Z,0.00
2023-02-21T04:04:00.048Z,0.00
2023-02-21T04:04:59.990Z,0.00
2023-02-21T04:05:59.992Z,0.00
2023-02-21T04:06:59.964Z,0.00
2023-02-21T04:07:59.985Z,0.00
2023-02-21T04:08:59.941Z,0.00
2023-02-21T04:09:59.966Z,0.00
2023-02-21T04:10:59.914Z,0.00
2023-02-21T04:11:59.941Z,0.00
2023-02-21T04:12:59.887Z,0.00
2023-02-21T04:13:59.917Z,0.00
2023-02-21T04:14:59.880Z,0.00
2023-02-21T04:15:59.929Z,0.00
2023-02-21T04:16:59.843Z,0.00
2023-02-21T04:17:59.854Z,0.00
2023-02-21T04:18:59.841Z,0.00
2023-02-21T04:19:59.846Z,0.00
2023-02-21T04:21:00.020Z,0.00
2023-02-21T04:21:59.805Z,0.00
2023-02-21T04:23:03.650Z,0.00
2023-02-21T04:23:59.794Z,0.00
2023-02-21T04:24:59.774Z,0.00
2023-02-21T04:25:59.766Z,0.00
2023-02-21T04:26:59.745Z,0.00
2023-02-21T04:27:59.753Z,0.00
2023-02-21T04:28:59.716Z,0.00
2023-02-21T04:29:59.730Z,0.00
2023-02-21T04:30:59.705Z,0.00
2023-02-21T04:31:59.834Z,0.00
2023-02-21T04:32:59.663Z,0.00
2023-02-21T04:34:11.195Z,0.00
2023-02-21T04:35:00.672Z,0.00
2023-02-21T04:35:59.938Z,0.00
2023-02-21T04:36:59.616Z,0.00
2023-02-21T04:37:59.663Z,0.00
2023-02-21T04:38:59.640Z,0.00
2023-02-21T04:39:59.595Z,0.00
2023-02-21T04:40:59.600Z,0.00
2023-02-21T04:41:59.556Z,0.00
2023-02-21T04:42:59.573Z,0.00
2023-02-21T04:43:59.540Z,0.00
2023-02-21T04:45:00.615Z,0.00
2023-02-21T04:45:59.579Z,0.00
2023-02-21T04:46:59.536Z,0.00
2023-02-21T04:47:59.485Z,0.00
2023-02-21T04:48:59.518Z,0.00
2023-02-21T04:49:59.494Z,0.00
2023-02-21T04:51:13.438Z,0.00
2023-02-21T04:52:00.468Z,0.00
2023-02-21T04:52:59.462Z,0.00
2023-02-21T04:53:59.431Z,0.00
2023-02-21T04:54:59.452Z,0.00
2023-02-21T04:55:59.744Z,0.00
2023-02-21T04:56:59.867Z,0.00
2023-02-21T04:57:59.382Z,0.00
2023-02-21T04:58:59.433Z,0.00
2023-02-21T04:59:59.794Z,0.00
2023-02-21T05:00:59.409Z,0.00
2023-02-21T05:02:01.188Z,0.00
2023-02-21T05:02:59.370Z,0.00
2023-02-21T05:03:59.360Z,0.00
2023-02-21T05:04:59.338Z,0.00
2023-02-21T05:05:59.319Z,0.00
2023-02-21T05:06:59.319Z,0.00
2023-02-21T05:07:59.265Z,0.00
2023-02-21T05:08:59.355Z,0.00
2023-02-21T05:09:59.264Z,0.00
2023-02-21T05:10:59.261Z,0.00
2023-02-21T05:11:59.243Z,0.00
2023-02-21T05:12:59.244Z,0.00
2023-02-21T05:13:59.200Z,0.00
2023-02-21T05:14:59.213Z,0.00
2023-02-21T05:15:59.213Z,0.00
2023-02-21T05:16:59.293Z,0.00
2023-02-21T05:17:59.714Z,0.00
2023-02-21T05:18:59.184Z,0.00
2023-02-21T05:19:59.150Z,0.00
2023-02-21T05:20:59.151Z,0.00
2023-02-21T05:21:59.128Z,0.00
2023-02-21T05:23:04.805Z,0.00
2023-02-21T05:24:00.123Z,0.00
2023-02-21T05:24:59.095Z,0.00
2023-02-21T05:25:59.080Z,0.00
2023-02-21T05:26:59.088Z,0.00
2023-02-21T05:27:59.073Z,0.00
2023-02-21T05:28:59.062Z,0.00
2023-02-21T05:29:59.013Z,0.00
2023-02-21T05:31:00.969Z,0.00
2023-02-21T05:31:59.057Z,0.00
2023-02-21T05:32:59.004Z,0.00
2023-02-21T05:33:58.985Z,0.00
2023-02-21T05:34:59.038Z,0.00
2023-02-21T05:35:58.952Z,0.00
2023-02-21T05:36:59.638Z,0.00
2023-02-21T05:37:59.232Z,0.00
2023-02-21T05:38:59.011Z,0.00
2023-02-21T05:39:59.777Z,0.00
2023-02-21T05:40:58.958Z,0.00
2023-02-21T05:41:59.061Z,0.00
2023-02-21T05:42:59.472Z,0.00
2023-02-21T05:43:58.889Z,0.00
2023-02-21T05:44:58.878Z,0.00
2023-02-21T05:45:58.916Z,0.00
2023-02-21T05:46:58.885Z,0.00
2023-02-21T05:47:58.820Z,0.00
2023-02-21T05:48:58.835Z,0.00
2023-02-21T05:49:59.214Z,0.00
2023-02-21T05:50:58.803Z,0.00
2023-02-21T05:51:58.784Z,0.00
2023-02-21T05:52:58.774Z,0.00
2023-02-21T05:53:58.743Z,0.00
2023-02-21T05:54:58.766Z,0.00
2023-02-21T05:55:59.462Z,0.00
2023-02-21T05:56:59.459Z,0.00
2023-02-21T05:57:59.574Z,0.00
2023-02-21T05:58:58.767Z,0.00
2023-02-21T05:59:58.668Z,0.00
2023-02-21T06:00:58.690Z,0.00
2023-02-21T06:01:58.705Z,0.00
2023-02-21T06:02:58.758Z,0.00
2023-02-21T06:03:58.625Z,0.00
2023-02-21T06:04:58.634Z,0.00
2023-02-21T06:05:58.596Z,0.00
2023-02-21T06:06:58.639Z,4.00
2023-02-21T06:07:58.577Z,0.00
2023-02-21T06:08:58.636Z,4.00
2023-02-21T06:09:58.550Z,4.00
2023-02-21T06:10:58.596Z,4.00
2023-02-21T06:11:58.547Z,4.00
2023-02-21T06:12:58.576Z,8.00
2023-02-21T06:13:58.584Z,4.00
2023-02-21T06:14:58.583Z,8.00
2023-02-21T06:15:58.523Z,8.00
2023-02-21T06:16:58.507Z,8.00
2023-02-21T06:17:58.519Z,12.00
2023-02-21T06:18:58.615Z,12.00
2023-02-21T06:19:58.452Z,12.00
2023-02-21T06:20:58.455Z,16.00
2023-02-21T06:21:58.506Z,12.00
2023-02-21T06:22:58.427Z,12.00
2023-02-21T06:23:58.429Z,16.00
2023-02-21T06:24:58.403Z,20.00
2023-02-21T06:25:58.633Z,24.00
2023-02-21T06:26:58.418Z,24.00
2023-02-21T06:27:58.355Z,28.00
2023-02-21T06:28:58.363Z,32.00
2023-02-21T06:29:58.334Z,28.00
2023-02-21T06:30:58.359Z,36.00
2023-02-21T06:31:58.344Z,40.00
2023-02-21T06:32:58.380Z,48.00
2023-02-21T06:33:58.288Z,48.00
2023-02-21T06:34:58.298Z,52.00
2023-02-21T06:35:58.296Z,64.00
2023-02-21T06:36:58.275Z,72.00
2023-02-21T06:37:58.268Z,76.00
2023-02-21T06:38:58.411Z,80.00
2023-02-21T06:39:58.248Z,88.00
2023-02-21T06:40:58.230Z,92.00
2023-02-21T06:41:58.271Z,96.00
2023-02-21T06:42:58.330Z,104.00
2023-02-21T06:43:58.184Z,116.00
2023-02-21T06:44:58.192Z,124.00
2023-02-21T06:45:58.213Z,132.00
2023-02-21T06:46:58.169Z,148.00
2023-02-21T06:47:58.141Z,164.00
2023-02-21T06:48:58.172Z,172.00
2023-02-21T06:49:58.118Z,180.00
2023-02-21T06:50:58.131Z,196.00
2023-02-21T06:51:58.093Z,184.00
2023-02-21T06:52:58.113Z,180.00
2023-02-21T06:53:58.084Z,180.00
2023-02-21T06:54:58.092Z,196.00
2023-02-21T06:55:58.042Z,236.00
2023-02-21T06:56:58.062Z,240.00
2023-02-21T06:57:58.060Z,240.00
2023-02-21T06:58:58.569Z,244.00
2023-02-21T06:59:58.012Z,248.00
2023-02-21T07:00:58.685Z,256.00
2023-02-21T07:01:58.090Z,264.00
2023-02-21T07:02:58.081Z,284.00
2023-02-21T07:03:57.975Z,296.00
2023-02-21T07:04:58.054Z,304.00
2023-02-21T07:05:58.202Z,332.00
2023-02-21T07:06:57.942Z,356.00
2023-02-21T07:07:57.908Z,372.00
2023-02-21T07:08:57.944Z,380.00
2023-02-21T07:09:57.914Z,380.00
2023-02-21T07:10:57.919Z,360.00
2023-02-21T07:11:57.889Z,392.00
2023-02-21T07:12:57.875Z,404.00
2023-02-21T07:13:57.861Z,400.00
2023-02-21T07:14:57.857Z,408.00
2023-02-21T07:15:57.860Z,448.00
2023-02-21T07:16:57.843Z,480.00
2023-02-21T07:17:57.807Z,504.00
2023-02-21T07:18:57.986Z,552.00
2023-02-21T07:19:57.783Z,508.00
2023-02-21T07:20:58.075Z,512.00
2023-02-21T07:21:57.761Z,480.00
2023-02-21T07:22:57.777Z,508.00
2023-02-21T07:23:57.724Z,516.00
2023-02-21T07:24:57.746Z,528.00
2023-02-21T07:25:57.769Z,632.00
2023-02-21T07:26:57.751Z,532.00
2023-02-21T07:27:57.691Z,604.00
2023-02-21T07:28:57.756Z,588.00
2023-02-21T07:29:58.481Z,576.00
2023-02-21T07:30:57.678Z,696.00
2023-02-21T07:31:57.727Z,676.00
2023-02-21T07:32:59.439Z,668.00
2023-02-21T07:33:57.670Z,708.00
2023-02-21T07:34:57.663Z,628.00
2023-02-21T07:35:57.605Z,704.00
2023-02-21T07:36:57.643Z,696.00
2023-02-21T07:37:57.619Z,788.00
2023-02-21T07:38:57.603Z,676.00
2023-02-21T07:39:57.607Z,836.00
2023-02-21T07:40:57.527Z,904.00
2023-02-21T07:41:57.538Z,672.00
2023-02-21T07:42:57.507Z,932.00
2023-02-21T07:43:57.523Z,808.00
2023-02-21T07:44:57.506Z,784.00
2023-02-21T07:45:57.543Z,876.00
2023-02-21T07:46:57.476Z,884.00
2023-02-21T07:47:57.482Z,832.00
2023-02-21T07:48:57.459Z,1096.00
2023-02-21T07:49:57.474Z,904.00
2023-02-21T07:50:57.417Z,780.00
2023-02-21T07:51:57.541Z,924.00
2023-02-21T07:52:57.389Z,848.00
2023-02-21T07:53:57.451Z,772.00
2023-02-21T07:54:57.394Z,932.00
2023-02-21T07:55:57.407Z,860.00
2023-02-21T07:56:57.358Z,764.00
2023-02-21T07:57:57.366Z,920.00
2023-02-21T07:58:57.337Z,972.00
2023-02-21T07:59:57.714Z,960.00
2023-02-21T08:00:57.366Z,976.00
2023-02-21T08:01:57.427Z,1084.00
2023-02-21T08:02:57.324Z,1044.00
2023-02-21T08:03:57.305Z,1032.00
2023-02-21T08:04:57.339Z,1092.00
2023-02-21T08:05:57.294Z,1148.00
2023-02-21T08:06:57.282Z,980.00
2023-02-21T08:07:57.295Z,1248.00
2023-02-21T08:08:57.243Z,1336.00
2023-02-21T08:09:57.254Z,1088.00
2023-02-21T08:10:57.260Z,1228.00
2023-02-21T08:11:57.253Z,1272.00
2023-02-21T08:12:57.172Z,1136.00
2023-02-21T08:13:57.243Z,1380.00
2023-02-21T08:14:57.172Z,1244.00
2023-02-21T08:15:57.274Z,1288.00
2023-02-21T08:16:57.150Z,1480.00
2023-02-21T08:17:57.167Z,1212.00
2023-02-21T08:18:57.157Z,1468.00
2023-02-21T08:19:57.172Z,1360.00
2023-02-21T08:20:57.967Z,1652.00
2023-02-21T08:21:57.117Z,1616.00
2023-02-21T08:22:57.114Z,1512.00
2023-02-21T08:23:57.071Z,1264.00
2023-02-21T08:24:57.163Z,1484.00
2023-02-21T08:25:57.102Z,1292.00
2023-02-21T08:26:57.153Z,1664.00
2023-02-21T08:27:57.059Z,1580.00
2023-02-21T08:28:56.996Z,1456.00
2023-02-21T08:29:57.052Z,1820.00
2023-02-21T08:30:56.988Z,1612.00
2023-02-21T08:31:57.129Z,1848.00
2023-02-21T08:32:56.948Z,1648.00
2023-02-21T08:33:56.976Z,1912.00
2023-02-21T08:34:56.961Z,1808.00
2023-02-21T08:35:56.956Z,1732.00
2023-02-21T08:36:56.926Z,1688.00
2023-02-21T08:37:56.940Z,1692.00
2023-02-21T08:38:56.910Z,1640.00
2023-02-21T08:39:56.908Z,1660.00
2023-02-21T08:40:57.640Z,1624.00
2023-02-21T08:41:56.870Z,1680.00
2023-02-21T08:42:56.909Z,1820.00
2023-02-21T08:43:56.853Z,1776.00
2023-02-21T08:44:56.890Z,1688.00
2023-02-21T08:45:56.860Z,1784.00
2023-02-21T08:46:56.840Z,1896.00
2023-02-21T08:47:56.859Z,1980.00
2023-02-21T08:48:56.808Z,2044.00
2023-02-21T08:49:56.776Z,2048.00
2023-02-21T08:50:56.861Z,2192.00
2023-02-21T08:51:56.769Z,2176.00
2023-02-21T08:52:56.720Z,2244.00
2023-02-21T08:53:56.720Z,2252.00
2023-02-21T08:54:56.745Z,2064.00
2023-02-21T08:55:56.706Z,2140.00
2023-02-21T08:56:56.719Z,2184.00
2023-02-21T08:57:56.702Z,2144.00
2023-02-21T08:58:56.757Z,2108.00
2023-02-21T08:59:56.685Z,2068.00
2023-02-21T09:00:56.765Z,2060.00
2023-02-21T09:01:56.704Z,1872.00
2023-02-21T09:02:56.663Z,1828.00
2023-02-21T09:03:56.657Z,1760.00
2023-02-21T09:04:56.629Z,1924.00
2023-02-21T09:05:56.906Z,1940.00
2023-02-21T09:06:56.630Z,1764.00
2023-02-21T09:07:56.578Z,1796.00
2023-02-21T09:08:56.609Z,1900.00
2023-02-21T09:09:56.540Z,2348.00
2023-02-21T09:10:56.570Z,2688.00
2023-02-21T09:11:56.592Z,2524.00
2023-02-21T09:12:56.563Z,2212.00
2023-02-21T09:13:56.518Z,2264.00
2023-02-21T09:14:56.521Z,2684.00
2023-02-21T09:15:56.489Z,2928.00
2023-02-21T09:16:56.839Z,3224.00
2023-02-21T09:17:56.458Z,3504.00
2023-02-21T09:18:56.475Z,3472.00
2023-02-21T09:19:56.441Z,3340.00
2023-02-21T09:20:56.583Z,3244.00
2023-02-21T09:21:56.619Z,3376.00
2023-02-21T09:22:56.468Z,3468.00
2023-02-21T09:23:56.390Z,3536.00
2023-02-21T09:24:56.396Z,3672.00
2023-02-21T09:25:56.360Z,3676.00
2023-02-21T09:26:56.466Z,3732.00
2023-02-21T09:27:56.376Z,3792.00
2023-02-21T09:28:56.370Z,3800.00
2023-02-21T09:29:56.381Z,3800.00
2023-02-21T09:30:56.347Z,3856.00
2023-02-21T09:31:56.430Z,3792.00
2023-02-21T09:32:56.317Z,3716.00
2023-02-21T09:33:56.301Z,3828.00
2023-02-21T09:34:56.316Z,3940.00
2023-02-21T09:35:56.255Z,3868.00
2023-02-21T09:36:56.327Z,3968.00
2023-02-21T09:37:56.261Z,3948.00
2023-02-21T09:38:58.325Z,3776.00
2023-02-21T09:39:56.237Z,3644.00
2023-02-21T09:40:56.237Z,3652.00
2023-02-21T09:41:56.483Z,3900.00
2023-02-21T09:42:56.220Z,4012.00
2023-02-21T09:43:56.178Z,3696.00
2023-02-21T09:44:56.168Z,3564.00
2023-02-21T09:45:56.226Z,3648.00
2023-02-21T09:46:56.203Z,3700.00
2023-02-21T09:47:56.178Z,3768.00
2023-02-21T09:48:56.190Z,3772.00
2023-02-21T09:49:56.109Z,3772.00
2023-02-21T09:50:56.155Z,3940.00
2023-02-21T09:51:56.099Z,4000.00
2023-02-21T09:52:56.109Z,4052.00
2023-02-21T09:53:56.080Z,4148.00
2023-02-21T09:54:56.063Z,4216.00
2023-02-21T09:55:56.066Z,4112.00
2023-02-21T09:56:56.027Z,4092.00
2023-02-21T09:57:56.037Z,4148.00
2023-02-21T09:58:56.050Z,4164.00
2023-02-21T09:59:55.990Z,4048.00
2023-02-21T10:00:55.995Z,3864.00
2023-02-21T10:01:55.968Z,3612.00
2023-02-21T10:02:55.987Z,3556.00
2023-02-21T10:03:55.947Z,3632.00
2023-02-21T10:04:55.998Z,3456.00
2023-02-21T10:05:55.916Z,3480.00
2023-02-21T10:06:55.912Z,3752.00
2023-02-21T10:07:55.888Z,3804.00
2023-02-21T10:08:55.921Z,3936.00
2023-02-21T10:09:55.863Z,3912.00
2023-02-21T10:10:55.885Z,3888.00
2023-02-21T10:11:55.846Z,3940.00
2023-02-21T10:12:55.872Z,3916.00
2023-02-21T10:13:55.816Z,4068.00
2023-02-21T10:14:55.845Z,4136.00
2023-02-21T10:15:55.847Z,4228.00
2023-02-21T10:16:55.881Z,4436.00
2023-02-21T10:17:55.784Z,4520.00
2023-02-21T10:18:55.784Z,4416.00
2023-02-21T10:19:55.752Z,4280.00
2023-02-21T10:20:55.783Z,4236.00
2023-02-21T10:21:55.862Z,4328.00
2023-02-21T10:22:56.287Z,4308.00
2023-02-21T10:23:55.714Z,4148.00
2023-02-21T10:24:55.737Z,4320.00
2023-02-21T10:25:55.688Z,4436.00
2023-02-21T10:26:55.704Z,4276.00
2023-02-21T10:27:55.695Z,4312.00
2023-02-21T10:28:56.967Z,4308.00
2023-02-21T10:29:55.658Z,4216.00
2023-02-21T10:30:55.790Z,4256.00
2023-02-21T10:31:55.664Z,4356.00
2023-02-21T10:32:55.644Z,4536.00
2023-02-21T10:33:55.608Z,4576.00
2023-02-21T10:34:55.653Z,4568.00
2023-02-21T10:35:55.590Z,4608.00
2023-02-21T10:36:55.678Z,4608.00
2023-02-21T10:37:55.613Z,4660.00
2023-02-21T10:38:55.657Z,4664.00
2023-02-21T10:39:55.554Z,4592.00
2023-02-21T10:40:55.648Z,4500.00
2023-02-21T10:41:55.524Z,4428.00
2023-02-21T10:42:55.582Z,4308.00
2023-02-21T10:43:55.603Z,4256.00
2023-02-21T10:44:55.517Z,4428.00
2023-02-21T10:45:55.629Z,4688.00
2023-02-21T10:46:55.481Z,4832.00
2023-02-21T10:47:55.448Z,5040.00
2023-02-21T10:48:55.465Z,4784.00
2023-02-21T10:49:55.437Z,4708.00
2023-02-21T10:50:55.445Z,4812.00
2023-02-21T10:51:55.491Z,4872.00
2023-02-21T10:52:55.469Z,4984.00
2023-02-21T10:53:55.382Z,5068.00
2023-02-21T10:54:55.424Z,5036.00
2023-02-21T10:55:55.510Z,5124.00
2023-02-21T10:56:55.655Z,5292.00
2023-02-21T10:57:55.363Z,5336.00
2023-02-21T10:58:55.349Z,5300.00
2023-02-21T10:59:55.312Z,5292.00
2023-02-21T11:00:55.376Z,5092.00
2023-02-21T11:01:55.292Z,4976.00
2023-02-21T11:02:55.353Z,5008.00
2023-02-21T11:03:55.340Z,5196.00
2023-02-21T11:04:55.274Z,5032.00
2023-02-21T11:05:55.256Z,4904.00
2023-02-21T11:06:55.264Z,4808.00
2023-02-21T11:07:55.273Z,4716.00
2023-02-21T11:08:55.265Z,4484.00
2023-02-21T11:09:55.223Z,4480.00
2023-02-21T11:10:55.272Z,4512.00
2023-02-21T11:11:55.217Z,4632.00
2023-02-21T11:12:55.254Z,4440.00
2023-02-21T11:13:55.193Z,4512.00
2023-02-21T11:14:55.222Z,4688.00
2023-02-21T11:15:55.225Z,4632.00
2023-02-21T11:16:55.178Z,4716.00
2023-02-21T11:17:55.203Z,4508.00
2023-02-21T11:18:55.148Z,4404.00
2023-02-21T11:19:55.121Z,4272.00
2023-02-21T11:20:55.154Z,4140.00
2023-02-21T11:21:55.074Z,4124.00
2023-02-21T11:22:55.093Z,4192.00
2023-02-21T11:23:55.189Z,3904.00
2023-02-21T11:24:55.094Z,4040.00
2023-02-21T11:25:55.033Z,4144.00
2023-02-21T11:26:55.072Z,4364.00
2023-02-21T11:27:55.044Z,4476.00
2023-02-21T11:28:55.032Z,4580.00
2023-02-21T11:29:55.048Z,4328.00
2023-02-21T11:30:55.037Z,4104.00
2023-02-21T11:31:54.981Z,4100.00
2023-02-21T11:32:56.999Z,4144.00
2023-02-21T11:33:54.956Z,4156.00
2023-02-21T11:34:54.979Z,4160.00
2023-02-21T11:35:54.968Z,4084.00
2023-02-21T11:36:54.974Z,3976.00
2023-02-21T11:37:54.931Z,3848.00
2023-02-21T11:38:54.939Z,3828.00
2023-02-21T11:39:54.909Z,3904.00
2023-02-21T11:40:54.921Z,4148.00
2023-02-21T11:41:54.900Z,4208.00
2023-02-21T11:42:55.003Z,4228.00
2023-02-21T11:43:55.034Z,4192.00
2023-02-21T11:44:55.024Z,4276.00
2023-02-21T11:45:54.843Z,4240.00
2023-02-21T11:46:54.880Z,4396.00
2023-02-21T11:47:54.845Z,4488.00
2023-02-21T11:48:54.809Z,4476.00
2023-02-21T11:49:54.791Z,4424.00
2023-02-21T11:50:54.810Z,4500.00
2023-02-21T11:51:54.772Z,4480.00
2023-02-21T11:52:54.800Z,4376.00
2023-02-21T11:53:54.791Z,4236.00
2023-02-21T11:54:54.747Z,4088.00
2023-02-21T11:55:54.725Z,4248.00
2023-02-21T11:56:54.740Z,4288.00
2023-02-21T11:57:54.724Z,4272.00
2023-02-21T11:58:54.708Z,4096.00
2023-02-21T11:59:54.678Z,3956.00
2023-02-21T12:00:54.707Z,3996.00
2023-02-21T12:01:54.681Z,3992.00
2023-02-21T12:02:54.779Z,3900.00
2023-02-21T12:03:54.642Z,3908.00
2023-02-21T12:04:54.647Z,3948.00
2023-02-21T12:05:54.768Z,4016.00
2023-02-21T12:06:54.617Z,4128.00
2023-02-21T12:07:54.596Z,4216.00
2023-02-21T12:08:54.607Z,4348.00
2023-02-21T12:09:54.592Z,4340.00
2023-02-21T12:10:54.582Z,4308.00
2023-02-21T12:11:54.563Z,4256.00
2023-02-21T12:12:54.552Z,4276.00
2023-02-21T12:13:54.536Z,4348.00
2023-02-21T12:14:54.546Z,4460.00
2023-02-21T12:15:54.538Z,4628.00
2023-02-21T12:16:54.566Z,4620.00
2023-02-21T12:17:54.493Z,4520.00
2023-02-21T12:18:54.502Z,4464.00
2023-02-21T12:19:54.479Z,4584.00
2023-02-21T12:20:54.482Z,4704.00
2023-02-21T12:21:54.531Z,4712.00
2023-02-21T12:22:54.663Z,4732.00
2023-02-21T12:23:54.402Z,4908.00
2023-02-21T12:24:54.443Z,4936.00
2023-02-21T12:25:54.795Z,4956.00
2023-02-21T12:26:54.698Z,4940.00
2023-02-21T12:27:54.378Z,4780.00
2023-02-21T12:28:54.732Z,4620.00
2023-02-21T12:29:54.356Z,4728.00
2023-02-21T12:30:54.389Z,4584.00
2023-02-21T12:31:54.465Z,4628.00
2023-02-21T12:32:54.370Z,4772.00
2023-02-21T12:33:54.546Z,4684.00
2023-02-21T12:34:54.324Z,4712.00
2023-02-21T12:35:54.395Z,4848.00
2023-02-21T12:36:54.323Z,4960.00
2023-02-21T12:37:54.598Z,5032.00
2023-02-21T12:38:54.418Z,5036.00
2023-02-21T12:39:54.479Z,4956.00
2023-02-21T12:40:54.259Z,4684.00
2023-02-21T12:41:54.228Z,4656.00
2023-02-21T12:42:54.223Z,5000.00
2023-02-21T12:43:54.250Z,5156.00